Time;durP1;ratioP1;P1;durP2;ratioP2;P2;SDS_P1;SDS_P2;PMS_P1;PMS_P2;Temp;Humidity;BMP_temperature;BMP_pressure;BME280_temperature;BME280_humidity;BME280_pressure;Samples;Min_cycle;Max_cycle;Signal;HPM_P1;HPM_P2
2024/03/05 00:00:10;;;;;;;1999.90;999.90;;;9.40;99.90;;;;;;5055074;28;20590;-78
2024/03/05 00:02:43;;;;;;;1999.90;999.90;;;9.30;99.90;;;;;;5054898;28;20502;-78
2024/03/05 00:05:15;;;;;;;1999.90;999.90;;;9.30;99.90;;;;;;5056338;28;20029;-78
2024/03/05 00:07:41;;;;;;;1999.90;999.90;;;9.30;99.90;;;;;;5054705;28;20055;-78
2024/03/05 00:10:07;;;;;;;1999.90;999.90;;;9.30;99.90;;;;;;5053997;28;20479;-78
2024/03/05 00:12:33;;;;;;;1999.90;999.90;;;9.40;99.90;;;;;;5060307;28;20029;-78
2024/03/05 00:14:59;;;;;;;1999.90;999.90;;;9.40;99.90;;;;;;5054089;28;20027;-77
2024/03/05 00:17:25;;;;;;;1999.90;999.90;;;9.30;99.90;;;;;;5054013;28;20112;-78
2024/03/05 00:19:52;;;;;;;1999.90;999.90;;;9.20;99.90;;;;;;5053540;28;20076;-78
2024/03/05 00:22:21;;;;;;;1999.90;999.90;;;9.20;99.90;;;;;;5052618;28;20025;-78
2024/03/05 00:24:46;;;;;;;1999.90;999.90;;;9.20;99.90;;;;;;5063122;28;20024;-77
2024/03/05 00:27:13;;;;;;;1999.90;999.90;;;9.30;99.90;;;;;;5051941;28;20025;-77
2024/03/05 00:29:40;;;;;;;1999.90;999.90;;;9.40;99.90;;;;;;5052682;28;20492;-78
2024/03/05 00:32:06;;;;;;;1999.90;999.90;;;9.40;99.90;;;;;;5059232;28;20431;-78
2024/03/05 00:34:32;;;;;;;1999.90;999.90;;;9.40;99.90;;;;;;5052587;28;20419;-77
2024/03/05 00:36:58;;;;;;;1999.90;999.90;;;9.40;99.90;;;;;;5053851;28;20025;-77
2024/03/05 00:39:23;;;;;;;1999.90;999.90;;;9.50;99.90;;;;;;5057311;28;20037;-77
2024/03/05 00:41:49;;;;;;;1999.90;999.90;;;9.50;99.90;;;;;;5054080;28;20025;-77
2024/03/05 00:44:16;;;;;;;1999.90;999.90;;;9.50;99.90;;;;;;5056695;28;20005;-78
2024/03/05 00:46:42;;;;;;;1999.90;999.90;;;9.50;99.90;;;;;;5055444;28;20029;-77
2024/03/05 00:49:08;;;;;;;1999.90;999.90;;;9.50;99.90;;;;;;5051970;28;20029;-78
2024/03/05 00:51:34;;;;;;;1999.90;999.90;;;9.50;99.90;;;;;;5059141;28;20031;-77
2024/03/05 00:54:01;;;;;;;1999.90;999.90;;;9.40;99.90;;;;;;5052946;28;20469;-77
2024/03/05 00:56:26;;;;;;;1999.90;999.90;;;9.40;99.90;;;;;;5053384;28;20476;-77
2024/03/05 00:58:52;;;;;;;1999.90;999.90;;;9.40;99.90;;;;;;5066502;28;20017;-77
2024/03/05 01:01:17;;;;;;;1999.90;999.90;;;9.40;99.90;;;;;;5055778;28;20467;-78
2024/03/05 01:03:43;;;;;;;1999.90;999.90;;;9.30;99.90;;;;;;5053386;28;20036;-77
2024/03/05 01:06:09;;;;;;;1999.90;999.90;;;9.20;99.90;;;;;;5060608;28;20019;-77
2024/03/05 01:08:34;;;;;;;1999.90;999.90;;;9.10;99.90;;;;;;5053436;28;20120;-77
2024/03/05 01:11:01;;;;;;;1999.90;999.90;;;9.00;99.90;;;;;;5051930;28;20027;-77
2024/03/05 01:13:27;;;;;;;1999.90;999.90;;;8.90;99.90;;;;;;5055668;28;20036;-77
2024/03/05 01:15:53;;;;;;;1999.90;999.90;;;9.00;99.90;;;;;;5051923;28;20037;-79
2024/03/05 01:18:18;;;;;;;1999.90;999.90;;;9.00;99.90;;;;;;5051477;28;20486;-77
2024/03/05 01:20:44;;;;;;;1999.90;999.90;;;9.10;99.90;;;;;;5055633;28;20165;-77
2024/03/05 01:23:13;;;;;;;1999.90;999.90;;;9.10;99.90;;;;;;5053191;28;20029;-77
2024/03/05 01:25:39;;;;;;;1999.90;999.90;;;9.20;99.90;;;;;;5058242;28;20013;-77
2024/03/05 01:28:05;;;;;;;1999.90;999.90;;;9.40;99.90;;;;;;5056003;28;20088;-77
2024/03/05 01:30:31;;;;;;;1999.90;999.90;;;9.50;99.90;;;;;;5053072;28;20051;-77
2024/03/05 01:33:03;;;;;;;1999.90;999.90;;;9.40;99.90;;;;;;5053323;28;20029;-77
2024/03/05 01:35:30;;;;;;;1999.90;999.90;;;9.10;99.90;;;;;;5052986;28;20025;-77
2024/03/05 01:37:56;;;;;;;1999.90;999.90;;;8.80;99.90;;;;;;5053021;28;20812;-77
2024/03/05 01:40:22;;;;;;;1999.90;999.90;;;8.50;99.90;;;;;;5059240;28;20021;-77
2024/03/05 01:42:48;;;;;;;1999.90;999.90;;;8.20;99.90;;;;;;5053207;28;20017;-77
2024/03/05 01:45:14;;;;;;;1999.90;999.90;;;8.10;99.90;;;;;;5055120;28;20027;-77
2024/03/05 01:47:40;;;;;;;1999.90;999.90;;;8.00;99.90;;;;;;5055039;28;20041;-77
2024/03/05 01:50:09;;;;;;;1999.90;999.90;;;8.00;99.90;;;;;;5051299;28;20483;-77
2024/03/05 01:52:35;;;;;;;1999.90;999.90;;;8.00;99.90;;;;;;5053817;28;20047;-77
2024/03/05 01:55:06;;;;;;;1999.90;999.90;;;8.00;99.90;;;;;;5051570;28;20032;-77
2024/03/05 01:57:33;;;;;;;1999.90;999.90;;;8.00;99.90;;;;;;5051600;28;20048;-78
2024/03/05 01:59:58;;;;;;;1999.90;999.90;;;8.00;99.90;;;;;;5063000;28;20028;-77
2024/03/05 02:02:24;;;;;;;1999.90;999.90;;;8.00;99.90;;;;;;5052799;28;20025;-78
2024/03/05 02:04:51;;;;;;;1999.90;999.90;;;7.70;99.90;;;;;;5051333;28;20028;-78
2024/03/05 02:07:18;;;;;;;1999.90;999.90;;;7.30;99.90;;;;;;5057588;28;20033;-77
2024/03/05 02:09:47;;;;;;;1999.90;999.90;;;7.20;99.90;;;;;;5052771;28;20092;-77
2024/03/05 02:12:13;;;;;;;1999.90;999.90;;;7.10;99.90;;;;;;5053229;28;20025;-77
2024/03/05 02:14:39;;;;;;;1999.90;999.90;;;7.10;99.90;;;;;;5053221;28;20025;-77
2024/03/05 02:17:07;;;;;;;1999.90;999.90;;;7.00;99.90;;;;;;5051046;28;20091;-77
2024/03/05 02:19:33;;;;;;;1999.90;999.90;;;6.90;99.90;;;;;;5062693;28;20036;-77
2024/03/05 02:22:02;;;;;;;1999.90;999.90;;;7.00;99.90;;;;;;5052501;28;20525;-77
2024/03/05 02:24:28;;;;;;;1999.90;999.90;;;7.00;99.90;;;;;;5052852;28;20109;-77
2024/03/05 02:26:54;;;;;;;1999.90;999.90;;;7.00;99.90;;;;;;5063159;28;20013;-77
2024/03/05 02:29:20;;;;;;;1999.90;999.90;;;7.00;99.90;;;;;;5055779;28;20506;-77
2024/03/05 02:31:45;;;;;;;1999.90;999.90;;;6.90;99.90;;;;;;5054661;28;20479;-77
2024/03/05 02:34:11;;;;;;;1999.90;999.90;;;6.90;99.90;;;;;;5058505;28;20518;-77
2024/03/05 02:36:37;;;;;;;1999.90;999.90;;;6.90;99.90;;;;;;5056138;28;20032;-77
2024/03/05 02:39:04;;;;;;;1999.90;999.90;;;6.90;99.90;;;;;;5055996;28;20130;-77
2024/03/05 02:41:30;;;;;;;1999.90;999.90;;;6.80;99.90;;;;;;5057700;28;20037;-77
2024/03/05 02:43:56;;;;;;;1999.90;999.90;;;6.80;99.90;;;;;;5055991;28;20025;-77
2024/03/05 02:46:22;;;;;;;1999.90;999.90;;;6.80;99.90;;;;;;5061345;28;20017;-77
2024/03/05 02:48:48;;;;;;;1999.90;999.90;;;6.90;99.90;;;;;;5054335;28;20036;-77
2024/03/05 02:51:14;;;;;;;1999.90;999.90;;;6.90;99.90;;;;;;5055738;28;20025;-77
2024/03/05 02:53:39;;;;;;;1999.90;999.90;;;6.90;99.90;;;;;;5071343;28;20013;-77
2024/03/05 02:56:06;;;;;;;1999.90;999.90;;;6.90;99.90;;;;;;5057040;28;20376;-77
2024/03/05 02:58:31;;;;;;;1999.90;999.90;;;6.90;99.90;;;;;;5055880;28;20020;-77
2024/03/05 03:00:57;;;;;;;1999.90;999.90;;;7.00;99.90;;;;;;5061123;28;20104;-77
2024/03/05 03:03:23;;;;;;;1999.90;999.90;;;7.20;99.90;;;;;;5054251;28;20028;-77
2024/03/05 03:05:48;;;;;;;1999.90;999.90;;;7.40;99.90;;;;;;5055416;28;20472;-78
2024/03/05 03:08:16;;;;;;;1999.90;999.90;;;7.40;99.90;;;;;;5063370;28;20472;-78
2024/03/05 03:10:42;;;;;;;1999.90;999.90;;;7.20;99.90;;;;;;5055714;28;20550;-78
2024/03/05 03:13:08;;;;;;;1999.90;999.90;;;7.20;99.90;;;;;;5053904;28;20120;-78
2024/03/05 03:15:34;;;;;;;1999.90;999.90;;;7.30;99.90;;;;;;5055561;28;20032;-78
2024/03/05 03:17:59;;;;;;;1999.90;999.90;;;7.20;99.90;;;;;;5054850;28;20036;-78
2024/03/05 03:20:26;;;;;;;1999.90;999.90;;;7.20;99.90;;;;;;5056544;28;20059;-78
2024/03/05 03:22:55;;;;;;;1999.90;999.90;;;7.40;99.90;;;;;;5053614;28;20489;-78
2024/03/05 03:25:20;;;;;;;1999.90;999.90;;;7.40;99.90;;;;;;5053920;28;20065;-78
2024/03/05 03:27:46;;;;;;;1999.90;999.90;;;7.60;99.90;;;;;;5062564;28;20116;-78
2024/03/05 03:30:18;;;;;;;1999.90;999.90;;;7.70;99.90;;;;;;5053575;28;20021;-78
2024/03/05 03:32:44;;;;;;;1999.90;999.90;;;7.90;99.90;;;;;;5058995;28;20013;-78
2024/03/05 03:35:10;;;;;;;1999.90;999.90;;;7.90;99.90;;;;;;5057820;28;20032;-78
2024/03/05 03:37:36;;;;;;;1999.90;999.90;;;8.00;99.90;;;;;;5056136;28;20025;-78
2024/03/05 03:40:07;;;;;;;1999.90;999.90;;;8.20;99.90;;;;;;5064465;28;20020;-78
2024/03/05 03:42:32;;;;;;;1999.90;999.90;;;8.20;99.90;;;;;;5056693;28;20476;-78
2024/03/05 03:44:58;;;;;;;1999.90;999.90;;;8.30;99.90;;;;;;5053432;28;20027;-78
2024/03/05 03:47:24;;;;;;;1999.90;999.90;;;8.30;99.90;;;;;;5063991;28;20041;-78
2024/03/05 03:49:49;;;;;;;1999.90;999.90;;;8.20;99.90;;;;;;5053409;28;20025;-77
2024/03/05 03:52:15;;;;;;;1999.90;999.90;;;8.30;99.90;;;;;;5053004;28;20029;-78
2024/03/05 03:54:41;;;;;;;1999.90;999.90;;;8.30;99.90;;;;;;5055556;28;20033;-78
2024/03/05 03:57:07;;;;;;;1999.90;999.90;;;8.30;99.90;;;;;;5054368;28;20107;-78
2024/03/05 03:59:33;;;;;;;1999.90;999.90;;;8.30;99.90;;;;;;5056055;28;20035;-77
2024/03/05 04:01:59;;;;;;;1999.90;999.90;;;8.30;99.90;;;;;;5052898;28;20464;-77
2024/03/05 04:04:24;;;;;;;1999.90;999.90;;;8.30;99.90;;;;;;5054312;28;20029;-77
2024/03/05 04:06:50;;;;;;;1999.90;999.90;;;8.30;99.90;;;;;;5066423;28;20069;-77
2024/03/05 04:09:16;;;;;;;1999.90;999.90;;;8.30;99.90;;;;;;5054190;28;20373;-77
2024/03/05 04:11:42;;;;;;;1999.90;999.90;;;8.40;99.90;;;;;;5054687;28;20040;-77
2024/03/05 04:14:08;;;;;;;1999.90;999.90;;;8.40;99.90;;;;;;5068188;28;20080;-77
2024/03/05 04:16:34;;;;;;;1999.90;999.90;;;8.50;99.90;;;;;;5056101;28;20218;-77
2024/03/05 04:19:00;;;;;;;1999.90;999.90;;;8.40;99.90;;;;;;5053485;28;20045;-77
2024/03/05 04:21:26;;;;;;;1999.90;999.90;;;8.40;99.90;;;;;;5057123;28;20087;-77
2024/03/05 04:23:55;;;;;;;1999.90;999.90;;;8.40;99.90;;;;;;5052686;28;20044;-77
2024/03/05 04:26:23;;;;;;;1999.90;999.90;;;8.30;99.90;;;;;;5052620;28;20021;-77
2024/03/05 04:28:52;;;;;;;1999.90;999.90;;;8.30;99.90;;;;;;5055472;28;20472;-77
2024/03/05 04:31:23;;;;;;;1999.90;999.90;;;8.20;99.90;;;;;;5052597;28;20021;-77
2024/03/05 04:33:49;;;;;;;1999.90;999.90;;;8.20;99.90;;;;;;5058532;28;20017;-77
2024/03/05 04:36:15;;;;;;;1999.90;999.90;;;8.20;99.90;;;;;;5055485;28;20072;-77
2024/03/05 04:38:43;;;;;;;1999.90;999.90;;;8.20;99.90;;;;;;5052386;28;20138;-77
2024/03/05 04:41:13;;;;;;;1999.90;999.90;;;8.10;99.90;;;;;;5055321;28;20108;-77
2024/03/05 04:43:39;;;;;;;1999.90;999.90;;;8.20;99.90;;;;;;5052225;28;20131;-77
2024/03/05 04:46:05;;;;;;;1999.90;999.90;;;8.20;99.90;;;;;;5052386;28;20128;-77
2024/03/05 04:48:33;;;;;;;1999.90;999.90;;;8.30;99.90;;;;;;5059708;28;20041;-77
2024/03/05 04:50:59;;;;;;;1999.90;999.90;;;8.30;99.90;;;;;;5053285;28;20024;-77
2024/03/05 04:53:25;;;;;;;1999.90;999.90;;;8.40;99.90;;;;;;5053918;28;20487;-77
2024/03/05 04:55:51;;;;;;;1999.90;999.90;;;8.40;99.90;;;;;;5052175;28;20031;-76
2024/03/05 04:58:18;;;;;;;1999.90;999.90;;;8.50;99.90;;;;;;5053738;28;20052;-77
2024/03/05 05:00:44;;;;;;;1999.90;999.90;;;8.20;99.90;;;;;;5055059;28;20039;-77
2024/03/05 05:03:10;;;;;;;1999.90;999.90;;;7.90;99.90;;;;;;5053381;28;20104;-77
2024/03/05 05:05:35;;;;;;;1999.90;999.90;;;7.80;99.90;;;;;;5052716;28;20478;-77
2024/03/05 05:08:03;;;;;;;1999.90;999.90;;;7.70;99.90;;;;;;5057078;28;20044;-77
2024/03/05 05:10:29;;;;;;;1999.90;999.90;;;7.70;99.90;;;;;;5051939;28;20387;-77
2024/03/05 05:12:54;;;;;;;1999.90;999.90;;;7.70;99.90;;;;;;5058924;28;20032;-77
2024/03/05 05:15:20;;;;;;;1999.90;999.90;;;7.80;99.90;;;;;;5054988;28;20104;-77
2024/03/05 05:17:45;;;;;;;1999.90;999.90;;;7.90;99.90;;;;;;5051504;28;20025;-77
2024/03/05 05:20:15;;;;;;;1999.90;999.90;;;7.80;99.90;;;;;;5054706;28;20037;-77
2024/03/05 05:22:42;;;;;;;1999.90;999.90;;;7.80;99.90;;;;;;5051816;28;20029;-77
2024/03/05 05:25:08;;;;;;;1999.90;999.90;;;7.80;99.90;;;;;;5051781;28;20111;-78
2024/03/05 05:27:37;;;;;;;1999.90;999.90;;;7.80;99.90;;;;;;5055633;28;20044;-78
2024/03/05 05:30:04;;;;;;;1999.90;999.90;;;7.80;99.90;;;;;;5051692;28;20021;-77
2024/03/05 05:32:29;;;;;;;1999.90;999.90;;;7.80;99.90;;;;;;5060500;28;20024;-77
2024/03/05 05:34:55;;;;;;;1999.90;999.90;;;7.80;99.90;;;;;;5052997;28;20395;-78
2024/03/05 05:37:21;;;;;;;1999.90;999.90;;;7.20;99.90;;;;;;5051721;28;20041;-77
2024/03/05 05:39:47;;;;;;;1999.90;999.90;;;6.90;99.90;;;;;;5055819;28;20037;-78
2024/03/05 05:42:13;;;;;;;1999.90;999.90;;;6.70;99.90;;;;;;5051859;28;20446;-78
2024/03/05 05:44:40;;;;;;;1999.90;999.90;;;6.70;99.90;;;;;;5051828;28;20022;-78
2024/03/05 05:47:10;;;;;;;1999.90;999.90;;;6.80;99.90;;;;;;5056981;28;20029;-77
2024/03/05 05:49:36;;;;;;;1999.90;999.90;;;6.80;99.90;;;;;;5051689;28;20028;-78
2024/03/05 05:52:05;;;;;;;1999.90;999.90;;;6.90;99.90;;;;;;5053290;28;20025;-78
2024/03/05 05:54:39;;;;;;;1999.90;999.90;;;7.00;99.90;;;;;;5052904;28;20025;-78
2024/03/05 05:57:06;;;;;;;1999.90;999.90;;;7.00;99.90;;;;;;5051442;28;20411;-78
2024/03/05 05:59:33;;;;;;;1999.90;999.90;;;7.10;99.90;;;;;;5072216;28;20056;-78
2024/03/05 06:01:59;;;;;;;1999.90;999.90;;;7.10;99.90;;;;;;5072103;28;20437;-78
2024/03/05 06:04:25;;;;;;;1999.90;999.90;;;7.20;99.90;;;;;;5080669;28;20039;-78
2024/03/05 06:06:51;;;;;;;1999.90;999.90;;;7.30;99.90;;;;;;5078380;28;20395;-78
2024/03/05 06:09:27;;;;;;;1999.90;999.90;;;7.30;99.90;;;;;;5075223;28;20032;-78
2024/03/05 06:11:53;;;;;;;1999.90;999.90;;;7.40;99.90;;;;;;5077982;28;20115;-78
2024/03/05 06:14:19;;;;;;;1999.90;999.90;;;7.50;99.90;;;;;;5074915;28;20027;-78
2024/03/05 06:16:45;;;;;;;1999.90;999.90;;;7.50;99.90;;;;;;5056067;28;20134;-78
2024/03/05 06:19:11;;;;;;;1999.90;999.90;;;7.70;99.90;;;;;;5066522;28;20060;-78
2024/03/05 06:21:37;;;;;;;1999.90;999.90;;;7.70;99.90;;;;;;5054863;28;20033;-78
2024/03/05 06:24:03;;;;;;;1999.90;999.90;;;7.70;99.90;;;;;;5056293;28;20373;-78
2024/03/05 06:26:34;;;;;;;1999.90;999.90;;;7.60;99.90;;;;;;5063190;28;20116;-78
2024/03/05 06:29:00;;;;;;;1999.90;999.90;;;7.60;99.90;;;;;;5057681;28;20230;-78
2024/03/05 06:31:26;;;;;;;1999.90;999.90;;;7.70;99.90;;;;;;5055371;28;20112;-77
2024/03/05 06:33:52;;;;;;;1999.90;999.90;;;7.70;99.90;;;;;;5057802;28;20036;-78
2024/03/05 06:36:19;;;;;;;1999.90;999.90;;;7.60;99.90;;;;;;5054396;28;20035;-78
2024/03/05 06:38:45;;;;;;;1999.90;999.90;;;7.70;99.90;;;;;;5059462;28;20029;-78
2024/03/05 06:41:10;;;;;;;1999.90;999.90;;;7.60;99.90;;;;;;5074654;28;20086;-78
2024/03/05 06:43:41;;;;;;;1999.90;999.90;;;7.60;99.90;;;;;;5075740;28;20028;-78
2024/03/05 06:46:13;;;;;;;1999.90;999.90;;;7.50;99.90;;;;;;5089872;28;20025;-77
2024/03/05 06:48:47;;;;;;;1999.90;999.90;;;7.50;99.90;;;;;;5075616;28;20029;-78
2024/03/05 06:51:26;;;;;;;1999.90;999.90;;;7.50;99.90;;;;;;5055296;28;20017;-78
2024/03/05 06:56:40;;;;;;;1999.90;999.90;;;7.50;99.90;;;;;;5053384;28;20068;-78
2024/03/05 06:59:05;;;;;;;1999.90;999.90;;;7.70;99.90;;;;;;5050807;28;20052;-78
2024/03/05 07:01:34;;;;;;;1999.90;999.90;;;7.60;99.90;;;;;;5066696;28;20376;-78
2024/03/05 07:04:06;;;;;;;1999.90;999.90;;;7.60;99.90;;;;;;5055588;28;20021;-78
2024/03/05 07:06:34;;;;;;;1999.90;999.90;;;7.70;99.90;;;;;;5066389;28;20094;-79
2024/03/05 07:09:00;;;;;;;1999.90;999.90;;;7.60;99.90;;;;;;5073790;28;20452;-80
2024/03/05 07:11:27;;;;;;;1999.90;999.90;;;7.70;99.90;;;;;;5065652;28;20033;-79
2024/03/05 07:13:53;;;;;;;1999.90;999.90;;;7.70;99.90;;;;;;5070187;28;20032;-80
2024/03/05 07:16:20;;;;;;;1999.90;999.90;;;7.70;99.90;;;;;;5074575;28;20009;-77
2024/03/05 07:18:50;;;;;;;1999.90;999.90;;;7.80;99.90;;;;;;5055042;28;20077;-78
2024/03/05 07:21:23;;;;;;;1999.90;999.90;;;7.80;99.90;;;;;;5053667;28;20043;-78
2024/03/05 07:23:50;;;;;;;1999.90;999.90;;;7.90;99.90;;;;;;5037633;28;20523;-77
2024/03/05 07:26:16;;;;;;;1999.90;999.90;;;7.90;99.90;;;;;;5044785;28;20128;-79
2024/03/05 07:28:45;;;;;;;1999.90;999.90;;;8.00;99.90;;;;;;5053382;28;20025;-78
2024/03/05 07:31:11;;;;;;;1999.90;999.90;;;8.00;99.90;;;;;;5068316;28;20137;-78
2024/03/05 07:33:38;;;;;;;1999.90;999.90;;;8.00;99.90;;;;;;5074778;28;20032;-79
2024/03/05 07:36:07;;;;;;;1999.90;999.90;;;8.00;99.90;;;;;;5067366;28;20082;-78
2024/03/05 07:38:35;;;;;;;1999.90;999.90;;;8.00;99.90;;;;;;5052164;28;20009;-76
2024/03/05 07:41:01;;;;;;;1999.90;999.90;;;8.10;99.90;;;;;;5048347;28;20029;-75
2024/03/05 07:43:27;;;;;;;1999.90;999.90;;;8.40;99.90;;;;;;5052377;28;20364;-79
2024/03/05 07:45:52;;;;;;;1999.90;999.90;;;8.80;99.90;;;;;;5050052;28;20056;-78
2024/03/05 07:48:18;;;;;;;1999.90;999.90;;;8.60;99.90;;;;;;5054248;28;20118;-79
2024/03/05 07:50:44;;;;;;;1999.90;999.90;;;8.10;99.90;;;;;;5053686;28;20463;-78
2024/03/05 07:53:10;;;;;;;1999.90;999.90;;;7.80;99.90;;;;;;5056316;28;20028;-79
2024/03/05 07:55:41;;;;;;;1999.90;999.90;;;7.60;99.90;;;;;;5050915;28;20364;-80
2024/03/05 07:58:07;;;;;;;1999.90;999.90;;;7.40;99.90;;;;;;5057367;28;20025;-79
2024/03/05 08:00:33;;;;;;;1999.90;999.90;;;7.20;99.90;;;;;;5051438;28;20032;-79
2024/03/05 08:02:59;;;;;;;1999.90;999.90;;;7.10;99.90;;;;;;5052300;28;20159;-80
2024/03/05 08:05:25;;;;;;;1999.90;999.90;;;7.20;99.90;;;;;;5062569;28;20052;-79
2024/03/05 08:07:56;;;;;;;1999.90;999.90;;;7.30;99.90;;;;;;5073031;28;20399;-81
2024/03/05 08:10:23;;;;;;;1999.90;999.90;;;7.40;99.90;;;;;;5057844;28;20025;-81
2024/03/05 08:12:51;;;;;;;1999.90;999.90;;;7.60;99.90;;;;;;5049260;28;20032;-76
2024/03/05 08:15:18;;;;;;;1999.90;999.90;;;7.70;99.90;;;;;;5055267;28;20044;-81
2024/03/05 08:17:48;;;;;;;1999.90;999.90;;;7.60;99.90;;;;;;5053060;28;20025;-79
2024/03/05 08:20:17;;;;;;;1999.90;999.90;;;7.40;99.90;;;;;;5061204;28;20392;-79
2024/03/05 08:22:46;;;;;;;1999.90;999.90;;;7.20;99.90;;;;;;5061217;28;20040;-80
2024/03/05 08:25:13;;;;;;;1999.90;999.90;;;7.10;99.90;;;;;;5053204;28;20041;-79
2024/03/05 08:27:41;;;;;;;1999.90;999.90;;;7.10;99.90;;;;;;5069971;28;20060;-80
2024/03/05 08:30:08;;;;;;;1999.90;999.90;;;7.10;99.90;;;;;;5052161;28;20040;-81
2024/03/05 08:32:35;;;;;;;1999.90;999.90;;;7.20;99.90;;;;;;5069055;28;20504;-75
2024/03/05 08:35:02;;;;;;;1999.90;999.90;;;7.20;99.90;;;;;;5056345;28;20032;-80
2024/03/05 08:37:27;;;;;;;1999.90;999.90;;;7.20;99.90;;;;;;5067534;28;20043;-80
2024/03/05 08:39:53;;;;;;;1999.90;999.90;;;7.10;99.90;;;;;;5081464;28;20065;-79
2024/03/05 08:42:19;;;;;;;1999.90;999.90;;;7.10;99.90;;;;;;5074569;28;20039;-80
2024/03/05 08:44:44;;;;;;;1999.90;999.90;;;7.20;99.90;;;;;;5068812;28;20033;-76
2024/03/05 08:47:12;;;;;;;1999.90;999.90;;;7.20;99.90;;;;;;5054695;28;20043;-80
2024/03/05 08:49:38;;;;;;;1999.90;999.90;;;7.30;99.90;;;;;;5054294;28;20025;-82
2024/03/05 08:52:04;;;;;;;1999.90;999.90;;;7.80;99.90;;;;;;5067151;28;20039;-79
2024/03/05 08:54:34;;;;;;;1999.90;999.90;;;9.30;99.90;;;;;;5067836;28;20025;-78
2024/03/05 08:57:05;;;;;;;1999.90;999.90;;;11.60;99.90;;;;;;5067143;28;20020;-76
2024/03/05 08:59:31;;;;;;;1999.90;999.90;;;13.90;99.90;;;;;;5065910;28;20110;-78
2024/03/05 09:01:57;;;;;;;1999.90;999.90;;;15.40;99.90;;;;;;5073186;28;20043;-75
2024/03/05 09:04:27;;;;;;;1999.90;999.90;;;16.20;99.90;;;;;;5058310;28;20016;-80
2024/03/05 09:06:55;;;;;;;1999.90;999.90;;;17.10;99.90;;;;;;5061731;28;20628;-77
2024/03/05 09:09:21;;;;;;;1999.90;999.90;;;17.80;99.90;;;;;;5050941;28;20499;-81
2024/03/05 09:11:47;;;;;;;1999.90;999.90;;;17.30;99.90;;;;;;5050883;28;20138;-77
2024/03/05 09:14:12;;;;;;;1999.90;999.90;;;16.40;99.90;;;;;;5057696;28;20491;-80
2024/03/05 09:16:39;;;;;;;1999.90;999.90;;;15.60;99.90;;;;;;5059605;28;20032;-82
2024/03/05 09:19:05;;;;;;;1999.90;999.90;;;16.40;99.90;;;;;;5065198;28;20037;-80
2024/03/05 09:21:32;;;;;;;1999.90;999.90;;;15.40;99.90;;;;;;5056812;28;20024;-76
2024/03/05 09:23:58;;;;;;;1999.90;999.90;;;13.60;99.90;;;;;;5058194;28;20464;-76
2024/03/05 09:26:25;;;;;;;1999.90;999.90;;;12.30;99.90;;;;;;5052297;28;20992;-80
2024/03/05 09:28:51;;;;;;;1999.90;999.90;;;11.40;99.90;;;;;;5051607;28;20025;-75
2024/03/05 09:31:18;;;;;;;1999.90;999.90;;;13.80;99.90;;;;;;5053383;28;20029;-75
2024/03/05 09:33:44;;;;;;;1999.90;999.90;;;15.80;99.90;;;;;;5069586;28;20025;-80
2024/03/05 09:36:10;;;;;;;1999.90;999.90;;;16.80;99.90;;;;;;5077635;28;20020;-76
2024/03/05 09:38:36;;;;;;;1999.90;999.90;;;16.30;99.90;;;;;;5066349;28;20030;-76
2024/03/05 09:41:04;;;;;;;1999.90;999.90;;;15.50;99.90;;;;;;5055202;28;20040;-77
2024/03/05 09:43:30;;;;;;;1999.90;999.90;;;14.10;99.90;;;;;;5053949;28;20035;-76
2024/03/05 09:46:04;;;;;;;1999.90;999.90;;;13.20;99.90;;;;;;5073508;28;20025;-78
2024/03/05 09:48:33;;;;;;;1999.90;999.90;;;12.70;99.90;;;;;;5075049;28;20024;-78
2024/03/05 09:51:00;;;;;;;1999.90;999.90;;;12.50;99.90;;;;;;5065621;28;20116;-76
2024/03/05 09:53:29;;;;;;;1999.90;999.90;;;12.00;99.90;;;;;;5053542;28;20414;-77
2024/03/05 09:55:54;;;;;;;1999.90;999.90;;;11.20;99.90;;;;;;5052390;28;20063;-76
2024/03/05 09:58:37;;;;;;;1999.90;999.90;;;10.80;99.90;;;;;;5052578;28;20451;-79
2024/03/05 10:01:05;;;;;;;1999.90;999.90;;;10.70;99.90;;;;;;5063611;28;20035;-76
2024/03/05 10:03:33;;;;;;;1999.90;999.90;;;10.50;99.90;;;;;;5075520;28;20395;-74
2024/03/05 10:06:00;;;;;;;1999.90;999.90;;;10.40;99.90;;;;;;5072986;28;20070;-79
2024/03/05 10:08:25;;;;;;;1999.90;999.90;;;10.20;99.90;;;;;;5055815;28;20427;-75
2024/03/05 10:10:59;;;;;;;1999.90;999.90;;;10.20;99.90;;;;;;5069822;28;20055;-74
2024/03/05 10:13:29;;;;;;;1999.90;999.90;;;10.20;99.90;;;;;;5075721;28;20032;-75
2024/03/05 10:16:24;;;;;;;1999.90;999.90;;;10.10;99.90;;;;;;5072515;28;20040;-77
2024/03/05 10:18:50;;;;;;;1999.90;999.90;;;10.10;99.90;;;;;;5067664;28;20084;-77
2024/03/05 10:21:18;;;;;;;1999.90;999.90;;;10.10;99.90;;;;;;5076284;28;20516;-78
2024/03/05 10:24:00;;;;;;;1999.90;999.90;;;10.00;99.90;;;;;;5064583;28;20368;-74
2024/03/05 10:26:27;;;;;;;1999.90;999.90;;;10.00;99.90;;;;;;5065018;28;20032;-77
2024/03/05 10:29:09;;;;;;;1999.90;999.90;;;9.90;99.90;;;;;;5064107;28;20017;-74
2024/03/05 10:31:40;;;;;;;1999.90;999.90;;;10.00;99.90;;;;;;5057276;28;20032;-77
2024/03/05 10:34:06;;;;;;;1999.90;999.90;;;10.20;99.90;;;;;;5072989;28;20025;-76
2024/03/05 10:36:42;;;;;;;1999.90;999.90;;;10.20;99.90;;;;;;5061580;28;20051;-79
2024/03/05 10:39:11;;;;;;;1999.90;999.90;;;10.40;99.90;;;;;;5054087;28;20501;-79
2024/03/05 10:41:38;;;;;;;1999.90;999.90;;;10.70;99.90;;;;;;5064265;28;20498;-78
2024/03/05 10:44:06;;;;;;;1999.90;999.90;;;10.50;99.90;;;;;;5077525;28;20379;-74
2024/03/05 10:46:34;;;;;;;1999.90;999.90;;;10.40;99.90;;;;;;5060464;28;20032;-75
2024/03/05 10:49:03;;;;;;;1999.90;999.90;;;10.70;99.90;;;;;;5053725;28;20024;-74
2024/03/05 10:51:38;;;;;;;1999.90;999.90;;;10.90;99.90;;;;;;5062142;28;20095;-78
2024/03/05 10:54:07;;;;;;;1999.90;999.90;;;11.10;99.90;;;;;;5052831;28;20021;-74
2024/03/05 10:56:35;;;;;;;1999.90;999.90;;;11.20;99.90;;;;;;5054852;28;20103;-78
2024/03/05 10:59:28;;;;;;;1999.90;999.90;;;10.90;99.90;;;;;;5050641;28;20471;-78
2024/03/05 11:01:56;;;;;;;1999.90;999.90;;;10.80;99.90;;;;;;5060557;28;20507;-80
2024/03/05 11:04:22;;;;;;;1999.90;999.90;;;11.20;99.90;;;;;;5054417;28;20032;-77
2024/03/05 11:06:57;;;;;;;1999.90;999.90;;;11.40;99.90;;;;;;5063865;28;20120;-75
2024/03/05 11:09:24;;;;;;;1999.90;999.90;;;11.20;99.90;;;;;;5077971;28;20016;-77
2024/03/05 11:12:02;;;;;;;1999.90;999.90;;;11.30;99.90;;;;;;5067730;28;20043;-78
2024/03/05 11:14:30;;;;;;;1999.90;999.90;;;10.90;99.90;;;;;;5073330;28;20052;-78
2024/03/05 11:17:12;;;;;;;1999.90;999.90;;;11.10;99.90;;;;;;5062923;28;20048;-74
2024/03/05 11:19:43;;;;;;;1999.90;999.90;;;11.20;99.90;;;;;;5053139;28;20103;-75
2024/03/05 11:22:27;;;;;;;1999.90;999.90;;;10.90;99.90;;;;;;5060127;28;20114;-78
2024/03/05 11:24:57;;;;;;;1999.90;999.90;;;10.80;99.90;;;;;;5038789;28;20021;-74
2024/03/05 11:27:24;;;;;;;1999.90;999.90;;;10.80;99.90;;;;;;5067082;28;20028;-75
2024/03/05 11:30:19;;;;;;;1999.90;999.90;;;11.00;99.90;;;;;;5054495;28;20052;-74
2024/03/05 11:32:44;;;;;;;1999.90;999.90;;;11.10;99.90;;;;;;5069191;28;20052;-74
2024/03/05 11:35:11;;;;;;;1999.90;999.90;;;10.90;99.90;;;;;;5054536;28;20036;-77
2024/03/05 11:37:57;;;;;;;1999.90;999.90;;;10.80;99.90;;;;;;5050140;28;20037;-72
2024/03/05 11:40:32;;;;;;;1999.90;999.90;;;10.60;99.90;;;;;;5052163;28;20043;-74
2024/03/05 11:42:57;;;;;;;1999.90;999.90;;;10.60;99.90;;;;;;5070298;28;20082;-74
2024/03/05 11:45:46;;;;;;;1999.90;999.90;;;10.60;99.90;;;;;;5085328;28;20449;-74
2024/03/05 11:48:20;;;;;;;1999.90;999.90;;;10.40;99.90;;;;;;5053844;28;20128;-75
2024/03/05 11:50:52;;;;;;;1999.90;999.90;;;10.30;99.90;;;;;;5049752;28;20037;-74
2024/03/05 11:53:18;;;;;;;1999.90;999.90;;;10.00;99.90;;;;;;5034837;28;20116;-75
2024/03/05 11:55:44;;;;;;;1999.90;999.90;;;9.70;99.90;;;;;;5058535;28;20119;-75
2024/03/05 11:58:10;;;;;;;1999.90;999.90;;;9.40;99.90;;;;;;5053954;28;20444;-74
2024/03/05 12:00:37;;;;;;;1999.90;999.90;;;9.20;99.90;;;;;;5051707;28;20373;-74
2024/03/05 12:03:03;;;;;;;1999.90;999.90;;;8.90;99.90;;;;;;5051993;28;20047;-75
2024/03/05 12:05:30;;;;;;;1999.90;999.90;;;8.70;99.90;;;;;;5058071;28;20063;-76
2024/03/05 12:07:59;;;;;;;1999.90;999.90;;;8.50;99.90;;;;;;5052660;28;20036;-75
2024/03/05 12:10:28;;;;;;;1999.90;999.90;;;8.40;99.90;;;;;;5057243;28;20041;-75